Ironton, Indiana
Current Conditions -  °F | °C
As of 12:55 AM on Thursday 23 Oct 2014 (Local Time) from KDCY Reporting Station
Clear Clear  
Wind Chill: 40°   Ceiling: Unl
Heat Index: 40°   Visibility: 10mi
Dew Point: 39°   Wind: 0mph
Humidity: 98%   Direction: NA
Pressure: 30.26"   Gusts: NA
Location:  38.6262°N, 86.7615°W
Report Text: KDCY 230555Z AUTO 00000KT 10SM CLR 04/04 A3026 RMK AO2 T00420039 10096 20032 401600025
Loading
Personal Weather Stations






























Interactive Weather Map
Tropical Storm Tracking
New forecast layout! Learn more

10-Day Weather Forecast

Advertisements
Track Severe Weather on mobile